Portada
METAR-TAF:

METAR-TAF

Aeroports :

Bentonville Municipal Airport/Louise M Thaden Field

Bentonville, Arkansas, Estats Units d'Amèrica

latitud: 36-21N, longitud: 094-13W, altitud: 395 m

Observació

L'informe es va fer fa 38 minuts, a les 20:15 UTC
Vent 7 kt del Nord/Nord-Est
Temperatura 5°C
Humitat 93%
Pressió 1018 hPa
Visibilitat: 6.4 km
Cel cobert a una alçada de 500 ft
boirina

METAR: KVBT 222015Z AUTO 03007KT 4SM BR OVC005 05/04 A3006 RMK AO2 RAE08 CIG 003V008 P0000 TSNO

Hora: 14:53 (20:53 UTC)


TAF: manca

Observacions i pronòstics meteorològics de més de 4000 aeroports (METAR i TAF).

Les estacions disponibles són els punts grocs i vermells al mapa.

Posi el ratolí al punt desitjat per veure el nom de l'estació.

Feu clic per veure les observacions i els pronòstics meteorològics.

Per canviar el mapa: feu clic els botons verds amb una creu de color negre per apropar; al botó verd amb un guió per allunyar la imatge; o en les fletxes verdes per a mapes adjacents.


METAR-TAF: